Time;durP1;ratioP1;P1;durP2;ratioP2;P2;SDS_P1;SDS_P2;PMS_P1;PMS_P2;Temp;Humidity;BMP_temperature;BMP_pressure;BME280_temperature;BME280_humidity;BME280_pressure;Samples;Min_cycle;Max_cycle;Signal;HPM_P1;HPM_P2
2021/07/09 00:01:23;;;;;;;20.23;13.50;;;20.30;91.70;;;;;;5008642;28;20617;-68
2021/07/09 00:03:50;;;;;;;18.98;13.20;;;20.20;91.70;;;;;;5007558;28;20225;-68
2021/07/09 00:06:20;;;;;;;18.85;13.60;;;20.30;92.00;;;;;;5010488;28;20213;-70
2021/07/09 00:08:47;;;;;;;21.45;14.05;;;20.30;95.10;;;;;;5007532;28;20195;-70
2021/07/09 00:11:14;;;;;;;23.17;15.00;;;20.20;96.10;;;;;;5011543;28;20208;-70
2021/07/09 00:13:41;;;;;;;21.20;15.18;;;20.20;95.80;;;;;;5011378;28;20212;-67
2021/07/09 00:16:11;;;;;;;24.13;16.20;;;20.20;96.00;;;;;;4996170;28;20197;-69
2021/07/09 00:18:38;;;;;;;27.48;16.92;;;20.20;96.10;;;;;;5012285;28;20208;-70
2021/07/09 00:21:04;;;;;;;23.73;16.70;;;20.20;96.30;;;;;;5014256;28;20196;-70
2021/07/09 00:23:33;;;;;;;25.52;16.98;;;20.10;96.60;;;;;;4992586;28;20224;-70
2021/07/09 00:26:00;;;;;;;30.23;17.90;;;20.10;98.80;;;;;;5010189;28;20338;-70
2021/07/09 00:28:27;;;;;;;26.58;17.90;;;20.10;99.30;;;;;;5012226;28;20211;-68
2021/07/09 00:30:54;;;;;;;27.90;18.50;;;20.00;99.50;;;;;;5008781;28;20211;-69
2021/07/09 00:33:20;;;;;;;30.20;19.20;;;20.00;99.60;;;;;;5015315;28;20211;-69
2021/07/09 00:35:47;;;;;;;29.55;19.30;;;20.00;99.70;;;;;;5010730;28;20259;-71
2021/07/09 00:38:14;;;;;;;28.88;19.20;;;20.00;99.60;;;;;;5013538;28;20216;-68
2021/07/09 00:40:43;;;;;;;26.52;18.73;;;20.00;98.20;;;;;;5011072;28;20831;-70
2021/07/09 00:43:09;;;;;;;28.17;18.60;;;19.90;96.30;;;;;;5010818;28;20661;-69
2021/07/09 00:45:36;;;;;;;28.83;18.50;;;19.90;96.10;;;;;;5011270;28;20200;-68
2021/07/09 00:48:04;;;;;;;24.85;16.50;;;19.90;96.20;;;;;;5014923;28;20644;-69
2021/07/09 00:50:31;;;;;;;26.48;17.73;;;19.80;94.50;;;;;;5009927;28;20204;-67
2021/07/09 00:52:58;;;;;;;27.45;17.08;;;19.70;93.10;;;;;;5016175;28;20201;-71
2021/07/09 00:55:25;;;;;;;26.08;17.45;;;19.70;93.20;;;;;;5009076;28;20557;-69
2021/07/09 00:57:54;;;;;;;27.92;18.17;;;19.70;93.60;;;;;;5009129;28;20196;-69
2021/07/09 01:00:23;;;;;;;29.40;18.17;;;19.60;93.40;;;;;;5009946;28;20212;-70
2021/07/09 01:02:50;;;;;;;26.67;16.83;;;19.60;93.40;;;;;;5013497;28;20662;-68
2021/07/09 01:05:18;;;;;;;30.23;18.52;;;19.60;93.40;;;;;;5010363;28;20205;-67
2021/07/09 01:07:45;;;;;;;27.48;17.98;;;19.60;93.40;;;;;;5014573;28;20220;-68
2021/07/09 01:10:15;;;;;;;29.17;18.65;;;19.60;93.60;;;;;;5011725;28;20263;-68
2021/07/09 01:12:42;;;;;;;26.27;17.80;;;19.60;93.70;;;;;;5013896;28;20267;-69
2021/07/09 01:15:13;;;;;;;27.40;17.55;;;19.50;93.60;;;;;;5011419;28;20254;-68
2021/07/09 01:17:40;;;;;;;24.75;17.25;;;19.50;93.80;;;;;;5002095;28;20077;-68
2021/07/09 01:20:10;;;;;;;27.23;17.10;;;19.50;93.90;;;;;;5010583;28;20238;-71
2021/07/09 01:22:38;;;;;;;24.17;16.52;;;19.50;93.60;;;;;;5013235;28;20248;-70
2021/07/09 01:25:09;;;;;;;28.00;17.77;;;19.40;93.50;;;;;;5010965;28;20331;-71
2021/07/09 01:27:37;;;;;;;26.10;17.75;;;19.40;93.50;;;;;;5013187;28;20216;-70
2021/07/09 01:30:07;;;;;;;31.42;17.90;;;19.40;93.60;;;;;;4994758;28;20664;-70
2021/07/09 01:32:33;;;;;;;27.83;18.00;;;19.30;93.60;;;;;;5014248;28;20204;-67
2021/07/09 01:35:00;;;;;;;28.58;17.80;;;19.30;93.60;;;;;;5008652;28;20283;-69
2021/07/09 01:37:27;;;;;;;27.65;16.95;;;19.20;93.70;;;;;;5009167;28;20657;-68
2021/07/09 01:39:54;;;;;;;27.00;16.63;;;19.20;93.90;;;;;;5005136;28;20228;-69
2021/07/09 01:42:22;;;;;;;27.52;17.60;;;19.10;94.00;;;;;;5011223;28;20208;-71
2021/07/09 01:44:49;;;;;;;27.95;18.05;;;19.10;94.10;;;;;;5013747;28;20288;-70
2021/07/09 01:47:16;;;;;;;26.38;17.15;;;19.10;94.20;;;;;;5011821;28;20224;-69
2021/07/09 01:49:54;;;;;;;28.40;17.30;;;19.00;94.20;;;;;;5006106;28;20275;-72
2021/07/09 01:52:22;;;;;;;30.63;18.30;;;19.00;94.30;;;;;;5012278;28;20266;-66
2021/07/09 01:54:49;;;;;;;26.63;17.63;;;19.00;94.40;;;;;;5011244;28;20665;-68
2021/07/09 01:57:16;;;;;;;29.08;18.45;;;19.00;94.50;;;;;;5012171;28;20251;-68
2021/07/09 01:59:45;;;;;;;30.42;19.20;;;18.90;94.50;;;;;;5010357;28;20200;-68
2021/07/09 02:02:12;;;;;;;28.63;18.42;;;18.90;94.60;;;;;;5009464;28;20211;-69
2021/07/09 02:04:50;;;;;;;29.15;18.83;;;18.90;94.70;;;;;;5008356;28;20673;-69
2021/07/09 02:07:18;;;;;;;28.40;17.85;;;18.90;94.90;;;;;;5010978;28;20266;-71
2021/07/09 02:09:47;;;;;;;27.05;17.15;;;18.90;95.00;;;;;;5011082;28;20295;-70
2021/07/09 02:12:16;;;;;;;26.52;16.77;;;18.90;95.30;;;;;;5011739;28;20236;-69
2021/07/09 02:14:44;;;;;;;28.63;18.42;;;18.80;95.10;;;;;;5010516;28;20200;-69
2021/07/09 02:17:14;;;;;;;32.22;19.02;;;18.80;95.00;;;;;;5012246;28;20188;-69
2021/07/09 02:19:42;;;;;;;25.98;17.75;;;18.80;95.10;;;;;;5008094;28;20200;-68
2021/07/09 02:22:10;;;;;;;27.70;17.30;;;18.80;95.10;;;;;;5012644;28;20228;-70
2021/07/09 02:24:37;;;;;;;27.33;17.42;;;18.80;95.10;;;;;;5008177;28;20216;-70
2021/07/09 02:27:05;;;;;;;24.08;16.08;;;18.80;95.10;;;;;;5010836;28;20711;-70
2021/07/09 02:29:33;;;;;;;25.75;16.38;;;18.80;95.10;;;;;;5008513;28;20205;-69
2021/07/09 02:32:04;;;;;;;27.10;16.83;;;18.80;95.00;;;;;;5010152;28;20259;-69
2021/07/09 02:34:31;;;;;;;26.25;17.48;;;18.70;94.90;;;;;;5005878;28;20212;-69
2021/07/09 02:36:59;;;;;;;27.73;17.58;;;18.70;94.80;;;;;;5004903;28;20204;-69
2021/07/09 02:39:26;;;;;;;25.13;16.48;;;18.70;94.80;;;;;;5003549;28;20201;-70
2021/07/09 02:41:54;;;;;;;26.17;16.80;;;18.70;94.80;;;;;;5011553;28;20537;-67
2021/07/09 02:44:20;;;;;;;;;;;18.70;94.80;;;;;;5010783;28;20204;-70
2021/07/09 02:46:47;;;;;;;28.17;17.58;;;18.60;94.80;;;;;;5011392;28;20365;-71
2021/07/09 02:49:15;;;;;;;25.20;16.40;;;18.60;94.80;;;;;;5008306;28;20657;-70
2021/07/09 02:51:42;;;;;;;29.75;16.60;;;18.60;94.80;;;;;;5009736;28;20220;-69
2021/07/09 02:54:09;;;;;;;26.33;17.17;;;18.60;94.90;;;;;;5009076;28;20212;-68
2021/07/09 02:56:36;;;;;;;26.73;18.02;;;18.60;94.90;;;;;;5014159;28;20251;-68
2021/07/09 02:59:03;;;;;;;23.13;16.48;;;18.50;94.80;;;;;;5009897;28;20212;-68
2021/07/09 03:01:30;;;;;;;24.70;16.10;;;18.50;94.80;;;;;;5009971;28;20208;-68
2021/07/09 03:03:57;;;;;;;27.52;16.70;;;18.50;94.90;;;;;;5011265;28;20215;-69
2021/07/09 03:06:25;;;;;;;24.63;16.13;;;18.50;94.90;;;;;;5010745;28;20208;-71
2021/07/09 03:08:52;;;;;;;25.80;16.55;;;18.50;94.90;;;;;;5011104;28;20224;-70
2021/07/09 03:11:20;;;;;;;27.67;17.83;;;18.50;95.00;;;;;;5008092;28;20254;-70
2021/07/09 03:13:47;;;;;;;27.08;17.25;;;18.50;95.00;;;;;;5011375;28;20200;-69
2021/07/09 03:16:14;;;;;;;29.38;18.98;;;18.40;94.90;;;;;;5009375;28;20204;-70
2021/07/09 03:18:40;;;;;;;29.10;18.52;;;18.40;95.00;;;;;;5010107;28;20219;-71
2021/07/09 03:21:07;;;;;;;30.75;19.45;;;18.40;95.10;;;;;;5008689;28;20196;-68
2021/07/09 03:23:35;;;;;;;33.75;19.42;;;18.40;95.20;;;;;;5011169;28;20266;-68
2021/07/09 03:26:02;;;;;;;29.58;18.98;;;18.40;95.30;;;;;;4995193;28;20293;-67
2021/07/09 03:28:29;;;;;;;28.55;18.33;;;18.30;95.40;;;;;;5010827;28;20251;-69
2021/07/09 03:30:57;;;;;;;34.53;19.05;;;18.30;95.50;;;;;;4994549;28;20228;-69
2021/07/09 03:33:24;;;;;;;31.88;19.13;;;18.30;95.60;;;;;;5009129;28;20207;-70
2021/07/09 03:35:52;;;;;;;31.48;17.90;;;18.30;95.70;;;;;;5007058;28;20641;-70
2021/07/09 03:38:19;;;;;;;32.20;19.52;;;18.20;95.70;;;;;;5010034;28;20665;-68
2021/07/09 03:40:47;;;;;;;32.22;18.65;;;18.20;95.80;;;;;;5008497;28;20258;-70
2021/07/09 03:43:14;;;;;;;32.17;19.10;;;18.20;95.90;;;;;;4993386;28;20673;-70
2021/07/09 03:45:41;;;;;;;30.50;19.48;;;18.10;96.00;;;;;;5008923;28;20262;-69
2021/07/09 03:48:08;;;;;;;33.47;19.55;;;18.10;96.20;;;;;;5011680;28;20243;-69
2021/07/09 03:50:38;;;;;;;31.25;19.30;;;18.10;96.30;;;;;;5009514;28;20208;-69
2021/07/09 03:53:06;;;;;;;29.90;19.33;;;18.10;96.30;;;;;;5015926;28;20200;-71
2021/07/09 03:55:33;;;;;;;29.35;17.83;;;18.10;96.40;;;;;;5012573;28;20715;-69
2021/07/09 03:58:01;;;;;;;30.65;18.55;;;18.10;96.50;;;;;;4997382;28;20228;-70
2021/07/09 04:00:27;;;;;;;28.85;18.08;;;18.00;96.60;;;;;;5010706;28;20209;-68
2021/07/09 04:02:54;;;;;;;27.60;17.67;;;18.00;96.60;;;;;;5014943;28;20554;-71
2021/07/09 04:05:21;;;;;;;27.05;18.42;;;18.00;96.70;;;;;;4997432;28;20293;-69
2021/07/09 04:07:48;;;;;;;30.15;18.17;;;18.00;96.90;;;;;;5010578;28;20298;-70
2021/07/09 04:10:16;;;;;;;29.02;18.55;;;18.00;97.00;;;;;;5008078;28;20237;-69
2021/07/09 04:12:43;;;;;;;31.65;18.15;;;18.00;97.10;;;;;;5010813;28;20292;-69
2021/07/09 04:15:12;;;;;;;32.55;18.85;;;18.00;97.20;;;;;;4994612;28;20201;-69
2021/07/09 04:17:39;;;;;;;30.80;18.02;;;18.00;97.30;;;;;;5014604;28;20550;-70
2021/07/09 04:20:07;;;;;;;33.63;19.05;;;18.00;97.40;;;;;;5011288;28;20652;-71
2021/07/09 04:22:34;;;;;;;30.45;18.02;;;18.00;97.50;;;;;;5012165;28;20196;-68
2021/07/09 04:25:02;;;;;;;30.42;19.23;;;18.00;97.60;;;;;;5007942;28;20268;-68
2021/07/09 04:27:29;;;;;;;30.45;18.55;;;18.00;97.60;;;;;;5011084;28;20804;-69
2021/07/09 04:29:55;;;;;;;28.27;18.52;;;18.00;97.80;;;;;;5011401;28;20332;-71
2021/07/09 04:32:24;;;;;;;30.00;19.17;;;18.00;97.90;;;;;;5012340;28;20205;-68
2021/07/09 04:34:50;;;;;;;32.00;18.80;;;18.10;98.00;;;;;;5011455;28;20282;-69
2021/07/09 04:37:17;;;;;;;35.45;19.35;;;18.10;98.10;;;;;;5011649;28;20290;-70
2021/07/09 04:39:44;;;;;;;35.63;21.33;;;18.10;98.20;;;;;;5012090;28;20235;-70
2021/07/09 04:42:12;;;;;;;37.25;20.23;;;18.20;98.30;;;;;;5010969;28;20211;-71
2021/07/09 04:44:39;;;;;;;34.80;19.60;;;18.20;98.30;;;;;;5009895;28;20216;-69
2021/07/09 04:47:06;;;;;;;37.05;21.30;;;18.30;98.40;;;;;;5013734;28;20201;-67
2021/07/09 04:49:34;;;;;;;35.75;20.50;;;18.30;98.40;;;;;;5011530;28;20355;-70
2021/07/09 04:52:01;;;;;;;36.90;20.00;;;18.30;98.50;;;;;;5011704;28;20717;-70
2021/07/09 04:54:27;;;;;;;41.55;20.65;;;18.30;98.50;;;;;;5011367;28;20270;-71
2021/07/09 04:56:54;;;;;;;37.33;19.92;;;18.30;98.60;;;;;;5013262;28;20208;-72
2021/07/09 04:59:21;;;;;;;38.55;20.20;;;18.30;98.70;;;;;;5009222;28;20283;-68
2021/07/09 05:01:48;;;;;;;38.08;20.52;;;18.30;98.80;;;;;;5015469;28;20608;-69
2021/07/09 05:04:15;;;;;;;39.08;20.58;;;18.40;98.90;;;;;;5008574;28;20282;-72
2021/07/09 05:06:45;;;;;;;37.25;20.60;;;18.40;99.10;;;;;;5011602;28;20212;-70
2021/07/09 05:09:11;;;;;;;30.55;18.13;;;18.40;99.20;;;;;;5010888;28;20274;-70
2021/07/09 05:11:38;;;;;;;37.03;19.52;;;18.40;99.30;;;;;;5009540;28;20232;-68
2021/07/09 05:14:06;;;;;;;29.45;17.58;;;18.50;99.30;;;;;;5012408;28;20578;-67
2021/07/09 05:16:34;;;;;;;30.83;18.55;;;18.50;99.40;;;;;;5011058;28;20213;-68
2021/07/09 05:19:00;;;;;;;28.05;16.98;;;18.50;99.40;;;;;;5004608;28;20201;-71
2021/07/09 05:21:27;;;;;;;27.63;16.48;;;18.60;99.50;;;;;;5011267;28;20201;-69
2021/07/09 05:23:56;;;;;;;28.92;16.45;;;18.60;99.50;;;;;;5014184;28;20213;-70
2021/07/09 05:26:24;;;;;;;26.52;15.02;;;18.60;99.50;;;;;;5011715;28;20231;-71
2021/07/09 05:28:51;;;;;;;25.90;14.75;;;18.60;99.50;;;;;;5010111;28;20268;-71
2021/07/09 05:31:17;;;;;;;26.58;15.43;;;18.70;99.50;;;;;;5009798;28;20756;-71
2021/07/09 05:33:44;;;;;;;23.38;13.73;;;18.70;99.50;;;;;;5006444;28;20235;-68
2021/07/09 05:36:11;;;;;;;25.73;14.07;;;18.80;99.60;;;;;;5008817;28;20549;-70
2021/07/09 05:38:38;;;;;;;28.90;15.25;;;18.80;99.50;;;;;;5009790;28;20237;-73
2021/07/09 05:41:06;;;;;;;28.83;15.55;;;18.80;99.40;;;;;;4998427;28;20312;-70
2021/07/09 05:43:33;;;;;;;27.58;15.35;;;18.80;99.30;;;;;;5013625;28;21793;-67
2021/07/09 05:46:02;;;;;;;25.42;14.75;;;18.80;99.30;;;;;;5009313;28;20197;-70
2021/07/09 05:48:28;;;;;;;27.33;15.55;;;18.80;99.30;;;;;;5011727;28;20212;-69
2021/07/09 05:50:55;;;;;;;31.85;16.33;;;18.80;99.20;;;;;;5010351;28;20212;-72
2021/07/09 05:53:22;;;;;;;24.75;14.70;;;18.80;99.30;;;;;;5007194;28;20323;-69
2021/07/09 05:55:49;;;;;;;25.83;16.40;;;18.80;99.30;;;;;;5008532;28;20261;-69
2021/07/09 05:58:18;;;;;;;21.98;14.48;;;18.80;99.40;;;;;;5007623;28;20200;-67
2021/07/09 06:00:45;;;;;;;25.50;15.55;;;18.80;99.40;;;;;;5002224;28;20262;-67
2021/07/09 06:03:11;;;;;;;26.35;15.13;;;18.80;99.40;;;;;;5008409;28;20196;-69
2021/07/09 06:05:38;;;;;;;23.90;14.70;;;18.70;99.30;;;;;;5005469;28;20201;-68
2021/07/09 06:08:06;;;;;;;23.38;14.55;;;18.80;99.40;;;;;;5008463;28;20641;-70
2021/07/09 06:10:33;;;;;;;24.83;14.50;;;18.70;99.40;;;;;;5006117;28;20285;-70
2021/07/09 06:13:00;;;;;;;25.08;13.27;;;18.70;99.50;;;;;;4993089;28;20282;-70
2021/07/09 06:15:29;;;;;;;25.63;14.30;;;18.70;99.50;;;;;;5008853;28;20204;-71
2021/07/09 06:17:56;;;;;;;23.48;13.80;;;18.70;99.60;;;;;;5006468;28;20256;-71
2021/07/09 06:20:23;;;;;;;29.20;14.57;;;18.70;99.70;;;;;;5009704;28;20228;-69
2021/07/09 06:22:50;;;;;;;26.40;14.63;;;18.70;99.80;;;;;;5012986;28;20340;-70
2021/07/09 06:25:17;;;;;;;32.45;14.10;;;18.70;99.90;;;;;;5008424;28;20693;-70
2021/07/09 06:27:45;;;;;;;34.97;13.77;;;18.70;99.90;;;;;;5009691;28;20208;-69
2021/07/09 06:30:13;;;;;;;26.08;12.20;;;18.70;99.90;;;;;;5007475;28;20205;-71
2021/07/09 06:32:41;;;;;;;24.70;12.50;;;18.70;99.90;;;;;;5008983;28;21904;-69
2021/07/09 06:35:09;;;;;;;28.25;13.52;;;18.70;99.90;;;;;;5010488;28;20755;-70
2021/07/09 06:37:36;;;;;;;27.13;14.07;;;18.80;99.90;;;;;;5009573;28;20669;-70
2021/07/09 06:40:05;;;;;;;25.58;12.75;;;18.80;99.90;;;;;;5008008;28;20262;-69
2021/07/09 06:42:32;;;;;;;23.90;13.18;;;18.90;99.90;;;;;;5012473;28;21021;-71
2021/07/09 06:44:59;;;;;;;19.30;10.82;;;18.90;99.90;;;;;;5007779;28;20236;-69
2021/07/09 06:47:26;;;;;;;19.02;11.10;;;18.90;99.90;;;;;;5010678;28;20208;-69
2021/07/09 06:49:54;;;;;;;19.35;11.48;;;19.00;99.90;;;;;;5005208;28;20263;-71
2021/07/09 06:52:21;;;;;;;22.20;11.48;;;19.00;99.90;;;;;;5007876;28;20271;-68
2021/07/09 06:54:47;;;;;;;18.92;11.43;;;19.00;99.90;;;;;;5010070;28;20283;-69
2021/07/09 06:57:14;;;;;;;23.10;12.27;;;19.00;99.90;;;;;;5013721;28;20730;-69
2021/07/09 06:59:42;;;;;;;24.42;11.98;;;19.10;99.90;;;;;;5009393;28;20231;-70
2021/07/09 07:02:09;;;;;;;19.48;11.60;;;19.10;99.90;;;;;;5012332;28;20251;-69
2021/07/09 07:04:36;;;;;;;19.48;10.50;;;19.10;99.90;;;;;;5007843;28;20204;-69
2021/07/09 07:07:04;;;;;;;18.35;11.57;;;19.10;99.90;;;;;;5009751;28;20645;-70
2021/07/09 07:09:32;;;;;;;18.40;10.65;;;19.10;99.90;;;;;;5011780;28;20243;-68
2021/07/09 07:12:02;;;;;;;25.95;10.60;;;19.10;99.90;;;;;;5011074;28;20211;-69
2021/07/09 07:14:29;;;;;;;14.23;9.25;;;19.10;99.90;;;;;;5010903;28;20218;-70
2021/07/09 07:16:56;;;;;;;17.90;9.77;;;19.10;99.80;;;;;;4994615;28;20208;-67
2021/07/09 07:19:23;;;;;;;15.77;9.48;;;19.10;99.70;;;;;;5010128;28;20279;-70
2021/07/09 07:21:49;;;;;;;20.40;10.23;;;19.10;99.70;;;;;;4992181;28;20290;-70
2021/07/09 07:24:18;;;;;;;16.63;9.50;;;19.10;99.60;;;;;;5009316;28;20208;-70
2021/07/09 07:26:45;;;;;;;17.05;9.77;;;19.20;99.60;;;;;;5004574;28;20256;-70
2021/07/09 07:29:11;;;;;;;20.15;10.20;;;19.20;99.60;;;;;;5007473;28;20216;-69
2021/07/09 07:31:38;;;;;;;18.30;9.73;;;19.20;99.50;;;;;;5009002;28;20292;-69
2021/07/09 07:34:05;;;;;;;21.65;11.82;;;19.30;99.60;;;;;;5009204;28;20255;-67
2021/07/09 07:36:32;;;;;;;15.55;8.55;;;19.30;99.50;;;;;;5012681;28;20254;-71
2021/07/09 07:38:59;;;;;;;13.77;8.82;;;19.30;99.40;;;;;;5010841;28;20250;-69
2021/07/09 07:41:27;;;;;;;13.98;8.82;;;19.30;99.30;;;;;;5010602;28;20250;-68
2021/07/09 07:43:54;;;;;;;12.50;7.65;;;19.30;99.10;;;;;;5011238;28;20204;-69
2021/07/09 07:46:20;;;;;;;15.52;8.82;;;19.30;99.00;;;;;;5009051;28;20232;-70
2021/07/09 07:48:47;;;;;;;15.52;8.30;;;19.30;98.90;;;;;;5012128;28;20283;-69
2021/07/09 07:51:14;;;;;;;15.60;8.63;;;19.40;98.90;;;;;;5009811;28;20683;-69
2021/07/09 07:53:41;;;;;;;16.05;8.35;;;19.30;98.70;;;;;;4990674;28;20216;-70
2021/07/09 07:56:08;;;;;;;21.35;8.88;;;19.40;98.50;;;;;;5006510;28;20204;-67
2021/07/09 07:58:37;;;;;;;17.52;10.27;;;19.40;98.30;;;;;;5010199;28;20211;-68
2021/07/09 08:01:05;;;;;;;15.75;9.00;;;19.30;98.10;;;;;;5004345;28;20216;-68
2021/07/09 08:03:31;;;;;;;13.52;8.00;;;19.30;98.00;;;;;;5007443;28;20661;-70
2021/07/09 08:05:58;;;;;;;14.65;8.43;;;19.30;98.00;;;;;;5010470;28;20255;-71
2021/07/09 08:08:25;;;;;;;14.80;8.55;;;19.40;98.10;;;;;;5003624;28;20290;-72
2021/07/09 08:10:52;;;;;;;13.52;8.70;;;19.40;98.10;;;;;;5008714;28;20259;-68
2021/07/09 08:13:19;;;;;;;16.70;9.07;;;19.40;98.10;;;;;;5010574;28;20231;-68
2021/07/09 08:15:47;;;;;;;15.20;8.60;;;19.40;98.10;;;;;;5005990;28;20625;-70
2021/07/09 08:18:14;;;;;;;13.20;8.65;;;19.40;98.00;;;;;;5011487;28;20200;-70
2021/07/09 08:20:41;;;;;;;18.27;8.95;;;19.50;98.00;;;;;;5008793;28;20209;-70
2021/07/09 08:23:07;;;;;;;20.92;9.57;;;19.50;98.10;;;;;;5010367;28;20243;-70
2021/07/09 08:25:34;;;;;;;14.98;8.52;;;19.50;98.40;;;;;;5005861;28;20240;-69
2021/07/09 08:28:01;;;;;;;16.48;7.63;;;19.60;98.00;;;;;;5008768;28;20228;-70
2021/07/09 08:30:28;;;;;;;13.85;8.13;;;19.60;97.80;;;;;;5006768;28;20617;-70
2021/07/09 08:32:56;;;;;;;16.50;8.40;;;19.60;97.70;;;;;;5011893;28;20200;-69
2021/07/09 08:35:23;;;;;;;15.25;7.95;;;19.60;97.60;;;;;;5007406;28;20228;-69
2021/07/09 08:37:50;;;;;;;13.63;8.13;;;19.60;97.60;;;;;;5012785;28;20208;-68
2021/07/09 08:40:18;;;;;;;14.30;7.50;;;19.60;97.60;;;;;;5010820;28;20205;-70
2021/07/09 08:42:47;;;;;;;10.90;6.70;;;19.70;97.40;;;;;;5014869;28;20204;-71
2021/07/09 08:45:13;;;;;;;12.40;7.35;;;19.70;97.30;;;;;;5012586;28;20216;-69
2021/07/09 08:47:42;;;;;;;15.48;7.13;;;19.70;97.10;;;;;;5014663;28;20212;-69
2021/07/09 08:50:11;;;;;;;14.00;7.55;;;19.80;97.00;;;;;;4990983;28;20642;-68
2021/07/09 08:52:40;;;;;;;10.93;7.30;;;19.80;96.90;;;;;;5015963;28;20734;-69
2021/07/09 08:55:11;;;;;;;13.70;7.68;;;19.80;96.90;;;;;;5010672;28;20200;-69
2021/07/09 08:57:38;;;;;;;12.15;7.35;;;19.80;96.90;;;;;;5015605;28;20250;-73
2021/07/09 09:00:08;;;;;;;12.98;7.70;;;19.80;96.80;;;;;;5009915;28;20210;-70
2021/07/09 09:02:45;;;;;;;13.18;8.27;;;19.90;96.70;;;;;;5011508;28;20207;-67
2021/07/09 09:05:20;;;;;;;12.60;8.35;;;19.90;96.70;;;;;;5012494;28;20208;-70
2021/07/09 09:07:57;;;;;;;18.63;8.32;;;19.90;96.70;;;;;;4997412;28;20262;-68
2021/07/09 09:10:33;;;;;;;16.85;8.98;;;20.00;96.70;;;;;;5012112;28;20244;-71
2021/07/09 09:13:05;;;;;;;16.88;8.65;;;20.00;96.70;;;;;;5013086;28;20204;-69
2021/07/09 09:15:31;;;;;;;23.73;9.20;;;20.00;96.60;;;;;;5009039;28;20204;-70
2021/07/09 09:17:58;;;;;;;13.25;9.27;;;20.10;96.70;;;;;;5012281;28;20204;-72
2021/07/09 09:20:30;;;;;;;25.02;9.90;;;20.10;96.80;;;;;;5010388;28;20240;-70
2021/07/09 09:23:01;;;;;;;19.08;9.02;;;20.10;97.00;;;;;;5015359;28;20210;-66
2021/07/09 09:25:30;;;;;;;15.38;8.70;;;20.10;97.00;;;;;;5012411;28;20234;-66
2021/07/09 09:28:00;;;;;;;17.15;8.75;;;20.10;97.00;;;;;;5010683;28;20279;-71
2021/07/09 09:30:27;;;;;;;17.60;9.85;;;20.10;97.00;;;;;;5012626;28;20227;-72
2021/07/09 09:32:54;;;;;;;18.67;9.77;;;20.20;97.00;;;;;;5010742;28;20232;-68
2021/07/09 09:35:22;;;;;;;15.23;10.02;;;20.20;96.90;;;;;;5010681;28;20247;-66
2021/07/09 09:37:56;;;;;;;20.70;10.50;;;20.20;96.90;;;;;;5011210;28;20200;-66
2021/07/09 09:40:25;;;;;;;17.20;10.00;;;20.20;96.80;;;;;;5009682;28;20224;-64
2021/07/09 09:42:52;;;;;;;14.55;10.00;;;20.30;96.90;;;;;;5012746;28;20243;-65
2021/07/09 09:45:21;;;;;;;18.60;9.93;;;20.30;96.90;;;;;;5004953;28;20310;-66
2021/07/09 09:47:49;;;;;;;21.02;11.27;;;20.30;96.90;;;;;;5012070;28;20265;-65
2021/07/09 09:50:18;;;;;;;22.90;10.35;;;20.40;96.90;;;;;;5010848;28;20219;-67
2021/07/09 09:52:46;;;;;;;19.17;9.90;;;20.40;97.00;;;;;;5012057;28;20213;-65
2021/07/09 09:55:16;;;;;;;18.17;10.65;;;20.40;96.90;;;;;;5011866;28;20275;-65
2021/07/09 09:57:44;;;;;;;20.58;9.95;;;20.50;96.90;;;;;;5011688;28;20869;-65
2021/07/09 10:00:28;;;;;;;16.45;10.07;;;20.50;96.80;;;;;;5007950;28;20283;-65
2021/07/09 10:02:56;;;;;;;15.93;10.32;;;20.50;96.70;;;;;;5008381;28;20309;-67
2021/07/09 10:05:23;;;;;;;18.33;9.95;;;20.50;96.70;;;;;;5009589;28;20266;-67
2021/07/09 10:07:52;;;;;;;21.75;11.15;;;20.60;96.70;;;;;;5009414;28;20259;-65
2021/07/09 10:10:21;;;;;;;19.25;10.45;;;20.60;96.70;;;;;;5012344;28;20221;-67
2021/07/09 10:12:50;;;;;;;20.42;10.40;;;20.70;96.60;;;;;;5013686;28;20294;-65
2021/07/09 10:15:17;;;;;;;22.42;10.45;;;20.70;96.60;;;;;;5008800;28;20243;-64
2021/07/09 10:17:49;;;;;;;18.77;10.77;;;20.70;96.50;;;;;;5008149;28;20196;-67
2021/07/09 10:20:17;;;;;;;;;;;20.80;96.40;;;;;;5007039;28;20292;-68
2021/07/09 10:22:46;;;;;;;15.55;9.00;;;20.80;96.30;;;;;;5006850;28;20971;-69
2021/07/09 10:25:14;;;;;;;18.20;8.80;;;20.80;96.30;;;;;;5007354;28;20251;-70
2021/07/09 10:27:43;;;;;;;13.07;8.85;;;20.90;96.20;;;;;;5011717;28;20235;-70
2021/07/09 10:30:11;;;;;;;16.00;9.13;;;21.00;96.00;;;;;;5006362;28;20303;-69
2021/07/09 10:32:39;;;;;;;22.90;9.68;;;21.00;95.90;;;;;;5011225;28;20680;-72
2021/07/09 10:35:08;;;;;;;15.40;8.63;;;21.00;95.80;;;;;;5007536;28;20314;-70
2021/07/09 10:37:35;;;;;;;20.77;10.23;;;21.00;95.80;;;;;;5013090;28;20268;-68
2021/07/09 10:40:07;;;;;;;25.50;11.38;;;21.00;96.20;;;;;;5010053;28;20192;-70
2021/07/09 10:42:39;;;;;;;20.13;10.65;;;21.00;96.80;;;;;;5008909;28;20613;-72
2021/07/09 10:45:13;;;;;;;19.10;11.10;;;20.80;97.10;;;;;;5007911;28;20208;-71
2021/07/09 10:47:49;;;;;;;18.65;11.13;;;20.60;97.30;;;;;;4993408;28;20208;-71
2021/07/09 10:50:18;;;;;;;18.88;10.77;;;20.40;97.50;;;;;;5010421;28;20847;-70
2021/07/09 10:52:54;;;;;;;16.73;10.32;;;20.30;97.70;;;;;;5013019;28;20205;-69
2021/07/09 10:55:44;;;;;;;20.27;10.68;;;20.10;98.00;;;;;;5009888;28;20640;-70
2021/07/09 10:58:20;;;;;;;19.85;10.73;;;20.10;98.30;;;;;;5010559;28;20208;-70
2021/07/09 11:00:49;;;;;;;17.73;10.18;;;20.10;98.60;;;;;;5011859;28;20287;-72
2021/07/09 11:03:32;;;;;;;16.58;10.13;;;20.10;98.80;;;;;;5010957;28;20274;-69
2021/07/09 11:06:01;;;;;;;24.63;10.15;;;20.20;99.00;;;;;;5006849;28;20649;-71
2021/07/09 11:09:01;;;;;;;16.95;9.50;;;20.20;99.00;;;;;;5012120;28;20696;-69
2021/07/09 11:11:34;;;;;;;18.50;9.43;;;20.20;98.80;;;;;;5005519;28;20270;-71
2021/07/09 11:14:03;;;;;;;20.08;9.73;;;20.30;98.70;;;;;;5010328;28;20302;-72
2021/07/09 11:16:35;;;;;;;18.92;9.23;;;20.30;98.60;;;;;;5009702;28;20204;-71
2021/07/09 11:19:08;;;;;;;19.90;10.82;;;20.40;98.50;;;;;;5008873;28;20649;-71
2021/07/09 11:22:01;;;;;;;14.05;9.88;;;20.40;98.40;;;;;;5009644;28;20566;-71
2021/07/09 11:24:29;;;;;;;13.38;8.70;;;20.40;98.40;;;;;;5009744;28;20208;-72
2021/07/09 11:26:57;;;;;;;16.15;9.18;;;20.50;98.30;;;;;;5011565;28;20327;-72
2021/07/09 11:29:30;;;;;;;15.77;8.75;;;20.60;98.20;;;;;;5010653;28;20571;-70
2021/07/09 11:32:00;;;;;;;13.98;8.77;;;20.70;98.10;;;;;;5008990;28;20657;-72
2021/07/09 11:34:30;;;;;;;15.27;8.57;;;20.90;97.80;;;;;;4996825;28;20248;-74
2021/07/09 11:36:59;;;;;;;16.13;8.13;;;21.00;97.30;;;;;;5011606;28;20232;-71
2021/07/09 11:39:28;;;;;;;14.70;8.50;;;21.10;97.00;;;;;;5009629;28;20201;-72
2021/07/09 11:41:57;;;;;;;18.58;9.45;;;21.20;96.70;;;;;;5011225;28;20267;-71
2021/07/09 11:44:26;;;;;;;23.13;8.77;;;21.20;96.10;;;;;;5007086;28;20580;-71
2021/07/09 11:46:55;;;;;;;17.40;9.00;;;21.30;95.80;;;;;;5011604;28;20681;-72
2021/07/09 11:49:25;;;;;;;19.02;8.95;;;21.30;95.50;;;;;;5010188;28;20212;-70
2021/07/09 11:51:54;;;;;;;16.17;9.30;;;21.30;95.40;;;;;;5009946;28;20618;-71
2021/07/09 11:54:32;;;;;;;26.05;9.90;;;21.30;95.10;;;;;;4990697;28;20259;-72
2021/07/09 11:57:02;;;;;;;23.55;9.02;;;21.40;95.00;;;;;;5009210;28;20680;-73
2021/07/09 11:59:30;;;;;;;26.05;9.48;;;21.50;94.90;;;;;;5007770;28;20204;-69
2021/07/09 12:02:13;;;;;;;14.93;9.07;;;21.60;94.60;;;;;;5008537;28;20220;-71
2021/07/09 12:04:44;;;;;;;15.13;9.05;;;21.70;94.30;;;;;;5010542;28;20261;-71
2021/07/09 12:07:22;;;;;;;17.05;9.38;;;21.80;94.20;;;;;;5009175;28;20197;-70
2021/07/09 12:09:51;;;;;;;16.50;9.30;;;21.90;94.10;;;;;;5012571;28;20215;-73
2021/07/09 12:12:18;;;;;;;18.02;9.25;;;22.00;93.90;;;;;;5013701;28;20668;-71
2021/07/09 12:14:57;;;;;;;14.57;8.90;;;22.00;93.40;;;;;;5014678;28;20690;-73
2021/07/09 12:17:25;;;;;;;16.15;9.40;;;22.10;93.30;;;;;;5015713;28;20207;-71
2021/07/09 12:19:55;;;;;;;16.48;9.70;;;22.20;93.10;;;;;;5008805;28;20192;-72
2021/07/09 12:22:24;;;;;;;16.17;9.40;;;22.30;92.70;;;;;;5010926;28;20209;-72
2021/07/09 12:24:51;;;;;;;;;;;22.40;92.50;;;;;;5014481;28;20660;-73
2021/07/09 12:27:18;;;;;;;15.85;8.70;;;22.50;92.40;;;;;;5008807;28;20184;-72
2021/07/09 12:29:46;;;;;;;23.25;9.80;;;22.60;92.60;;;;;;5013878;28;20278;-71
2021/07/09 12:32:13;;;;;;;20.05;8.73;;;22.70;91.80;;;;;;5013701;28;20204;-71
2021/07/09 12:34:40;;;;;;;15.75;9.23;;;22.70;91.50;;;;;;5009901;28;20213;-71
2021/07/09 12:37:08;;;;;;;12.00;9.15;;;22.70;91.20;;;;;;5014031;28;20264;-70